Time;durP1;ratioP1;P1;durP2;ratioP2;P2;SDS_P1;SDS_P2;PMS_P1;PMS_P2;Temp;Humidity;BMP_temperature;BMP_pressure;BME280_temperature;BME280_humidity;BME280_pressure;Samples;Min_cycle;Max_cycle;Signal;HPM_P1;HPM_P2
2023/05/28 00:02:22;;;;;;;8.53;5.00;;;;;;;11.94;74.67;101391.22;5045030;28;20592;-77
2023/05/28 00:04:48;;;;;;;7.60;5.03;;;;;;;11.92;74.61;101393.09;5030551;28;20225;-77
2023/05/28 00:07:15;;;;;;;7.53;4.37;;;;;;;11.88;74.86;101397.75;5041782;28;20215;-76
2023/05/28 00:09:42;;;;;;;6.87;4.17;;;;;;;11.86;75.23;101394.31;5044189;28;20678;-77
2023/05/28 00:12:09;;;;;;;10.73;4.27;;;;;;;11.84;75.23;101393.53;5040543;28;20711;-76
2023/05/28 00:14:35;;;;;;;7.40;4.10;;;;;;;11.79;75.33;101382.28;5045893;28;20226;-76
2023/05/28 00:17:03;;;;;;;8.93;4.57;;;;;;;11.75;75.10;101381.53;5044967;28;20209;-76
2023/05/28 00:19:30;;;;;;;8.90;3.50;;;;;;;11.67;75.06;101377.56;5043478;28;20208;-77
2023/05/28 00:21:56;;;;;;;5.90;3.93;;;;;;;11.59;75.15;101386.03;5044656;28;20215;-76
2023/05/28 00:24:23;;;;;;;5.03;3.57;;;;;;;11.54;75.87;101379.22;5044246;28;20233;-76
2023/05/28 00:26:49;;;;;;;5.70;3.70;;;;;;;11.52;76.31;101375.78;5046673;28;20226;-77
2023/05/28 00:29:15;;;;;;;8.10;4.17;;;;;;;11.53;76.79;101389.03;5043789;28;20766;-77
2023/05/28 00:31:42;;;;;;;5.57;3.53;;;;;;;11.54;76.56;101374.75;5044937;28;20213;-76
2023/05/28 00:34:10;;;;;;;6.13;3.80;;;;;;;11.55;76.70;101372.94;5043697;28;20198;-77
2023/05/28 00:36:36;;;;;;;5.90;4.23;;;;;;;11.53;76.50;101367.69;5044256;28;20495;-76
2023/05/28 00:39:04;;;;;;;9.87;4.43;;;;;;;11.51;76.61;101377.56;5043427;28;20207;-77
2023/05/28 00:41:31;;;;;;;5.73;3.87;;;;;;;11.51;76.90;101379.38;5044510;28;20265;-76
2023/05/28 00:43:57;;;;;;;7.43;4.07;;;;;;;11.47;76.68;101370.69;5043375;28;20697;-76
2023/05/28 00:46:24;;;;;;;5.70;4.43;;;;;;;11.41;76.27;101373.72;5045197;28;20227;-74
2023/05/28 00:48:51;;;;;;;8.00;3.87;;;;;;;11.35;76.42;101376.72;5042945;28;20210;-76
2023/05/28 00:51:20;;;;;;;5.50;3.70;;;;;;;11.31;76.96;101378.69;5042669;28;20349;-76
2023/05/28 00:53:47;;;;;;;7.03;3.60;;;;;;;11.29;77.08;101377.03;5042854;28;20211;-77
2023/05/28 00:56:14;;;;;;;6.50;4.10;;;;;;;11.25;77.24;101370.16;5044061;28;20241;-76
2023/05/28 00:58:43;;;;;;;7.20;3.70;;;;;;;11.24;77.39;101371.97;5042272;28;20294;-76
2023/05/28 01:01:10;;;;;;;8.00;3.70;;;;;;;11.22;77.57;101376.53;5044336;28;20203;-77
2023/05/28 01:03:38;;;;;;;6.60;4.17;;;;;;;11.20;77.71;101365.06;5046706;28;20298;-76
2023/05/28 01:06:07;;;;;;;6.90;3.83;;;;;;;11.20;77.82;101362.41;5044881;28;20264;-75
2023/05/28 01:08:34;;;;;;;7.20;3.83;;;;;;;11.20;77.90;101356.22;5046698;28;20721;-74
2023/05/28 01:11:01;;;;;;;7.63;4.00;;;;;;;11.19;77.84;101362.50;5043029;28;20239;-76
2023/05/28 01:13:28;;;;;;;7.70;3.73;;;;;;;11.17;77.95;101367.03;5043157;28;20483;-76
2023/05/28 01:15:54;;;;;;;6.17;3.97;;;;;;;11.18;78.01;101356.31;5046155;28;20246;-76
2023/05/28 01:18:21;;;;;;;7.50;4.33;;;;;;;11.17;78.09;101354.56;5046211;28;20205;-76
2023/05/28 01:20:48;;;;;;;9.53;3.93;;;;;;;11.15;77.74;101348.47;5042261;28;20206;-77
2023/05/28 01:23:20;;;;;;;6.97;3.77;;;;;;;11.09;77.01;101360.34;5041910;28;20669;-76
2023/05/28 01:25:50;;;;;;;5.73;3.87;;;;;;;10.99;76.79;101361.75;5044997;28;20744;-76
2023/05/28 01:28:17;;;;;;;6.20;3.63;;;;;;;10.92;77.20;101363.06;5044138;28;20216;-76
2023/05/28 01:30:45;;;;;;;6.97;3.87;;;;;;;10.88;77.52;101355.31;5044449;28;20214;-73
2023/05/28 01:33:12;;;;;;;7.00;3.67;;;;;;;10.85;77.44;101350.13;5041646;28;20206;-75
2023/05/28 01:35:39;;;;;;;7.27;4.00;;;;;;;10.75;76.68;101345.28;5047092;28;20229;-75
2023/05/28 01:38:07;;;;;;;5.10;3.23;;;;;;;10.66;76.64;101344.91;5044265;28;20209;-76
2023/05/28 01:40:34;;;;;;;4.40;3.23;;;;;;;10.59;77.01;101343.50;5048355;28;20206;-77
2023/05/28 01:43:04;;;;;;;4.67;3.40;;;;;;;10.55;77.33;101341.97;5041371;28;20293;-76
2023/05/28 01:45:31;;;;;;;4.40;3.10;;;;;;;10.50;77.35;101350.19;5041156;28;20227;-76
2023/05/28 01:47:58;;;;;;;5.60;3.17;;;;;;;10.44;77.22;101343.34;5045510;28;20209;-75
2023/05/28 01:50:25;;;;;;;3.67;2.67;;;;;;;10.37;76.82;101352.63;5043123;28;20588;-75
2023/05/28 01:52:52;;;;;;;5.80;3.40;;;;;;;10.30;77.08;101353.88;5045329;28;20289;-74
2023/05/28 01:55:19;;;;;;;7.10;3.53;;;;;;;10.25;77.42;101339.06;5042697;28;20242;-75
2023/05/28 01:57:45;;;;;;;8.33;4.63;;;;;;;10.23;78.40;101344.44;5047045;28;20413;-75
2023/05/28 02:00:15;;;;;;;7.37;4.20;;;;;;;10.23;79.06;101341.78;5044925;28;20208;-75
2023/05/28 02:02:42;;;;;;;8.10;3.83;;;;;;;10.25;79.80;101331.94;5044058;28;20259;-75
2023/05/28 02:05:09;;;;;;;6.40;3.87;;;;;;;10.27;79.92;101332.72;5045571;28;20271;-75
2023/05/28 02:07:35;;;;;;;5.80;3.80;;;;;;;10.29;80.34;101333.50;5048164;28;20202;-76
2023/05/28 02:10:02;;;;;;;6.60;3.90;;;;;;;10.31;80.79;101317.44;5049124;28;20198;-75
2023/05/28 02:12:29;;;;;;;8.07;4.17;;;;;;;10.30;80.62;101316.59;5043324;28;20206;-75
2023/05/28 02:14:56;;;;;;;5.63;3.43;;;;;;;10.29;81.37;101325.50;5048730;28;20324;-76
2023/05/28 02:17:24;;;;;;;8.30;4.30;;;;;;;10.30;81.24;101329.03;5047061;28;20240;-75
2023/05/28 02:19:50;;;;;;;7.53;4.30;;;;;;;10.30;81.15;101329.03;5049957;28;20212;-76
2023/05/28 02:22:17;;;;;;;7.83;4.23;;;;;;;10.27;81.16;101326.53;5041185;28;20216;-75
2023/05/28 02:24:45;;;;;;;6.97;3.77;;;;;;;10.24;81.46;101322.22;5049102;28;20230;-74
2023/05/28 02:27:12;;;;;;;8.30;4.40;;;;;;;10.22;81.70;101329.41;5045900;28;20255;-75
2023/05/28 02:29:38;;;;;;;6.73;3.63;;;;;;;10.21;81.58;101327.69;5047792;28;20205;-75
2023/05/28 02:32:06;;;;;;;7.67;3.77;;;;;;;10.23;81.93;101330.28;5046312;28;20194;-73
2023/05/28 02:34:34;;;;;;;8.63;4.63;;;;;;;10.23;81.97;101324.97;5047348;28;20218;-75
2023/05/28 02:37:01;;;;;;;8.77;4.50;;;;;;;10.23;82.13;101323.16;5041286;28;20316;-74
2023/05/28 02:39:27;;;;;;;7.43;4.03;;;;;;;10.25;82.67;101325.75;5052005;28;20220;-74
2023/05/28 02:41:53;;;;;;;8.03;4.63;;;;;;;10.25;82.27;101326.59;5052220;28;20213;-74
2023/05/28 02:44:20;;;;;;;8.20;4.83;;;;;;;10.24;82.34;101327.53;5047106;28;20220;-76
2023/05/28 02:46:46;;;;;;;7.97;4.80;;;;;;;10.23;82.03;101331.16;5045153;28;20207;-75
2023/05/28 02:49:13;;;;;;;6.53;4.30;;;;;;;10.23;82.18;101330.28;5046229;28;20208;-76
2023/05/28 02:51:40;;;;;;;5.00;4.00;;;;;;;10.18;81.86;101334.97;5048390;28;20211;-77
2023/05/28 02:54:07;;;;;;;5.67;4.20;;;;;;;10.14;81.49;101334.25;5041904;28;20202;-75
2023/05/28 02:56:34;;;;;;;7.07;4.60;;;;;;;10.10;81.69;101338.00;5043799;28;20235;-75
2023/05/28 02:59:00;;;;;;;8.43;4.93;;;;;;;10.07;82.34;101341.69;5047786;28;20210;-74
2023/05/28 03:01:27;;;;;;;7.57;5.57;;;;;;;10.04;82.16;101341.81;5053264;28;20225;-75
2023/05/28 03:03:53;;;;;;;7.17;4.23;;;;;;;10.02;82.28;101337.53;5048774;28;20236;-75
2023/05/28 03:06:20;;;;;;;6.30;3.80;;;;;;;9.95;80.90;101344.09;5047124;28;20733;-76
2023/05/28 03:08:47;;;;;;;5.47;3.93;;;;;;;9.83;80.64;101352.69;5044651;28;20327;-76
2023/05/28 03:11:14;;;;;;;7.70;4.20;;;;;;;9.68;80.11;101347.16;5049342;28;20737;-76
2023/05/28 03:13:40;;;;;;;6.63;3.93;;;;;;;9.58;80.12;101348.56;5047355;28;20213;-75
2023/05/28 03:16:07;;;;;;;5.40;3.67;;;;;;;9.49;81.03;101348.16;5047404;28;20229;-76
2023/05/28 03:18:34;;;;;;;5.33;3.97;;;;;;;9.42;81.41;101352.88;5043559;28;20205;-74
2023/05/28 03:21:01;;;;;;;7.70;4.67;;;;;;;9.37;81.45;101355.75;5048591;28;20205;-75
2023/05/28 03:23:27;;;;;;;6.87;4.47;;;;;;;9.36;81.98;101355.81;5045364;28;20232;-74
2023/05/28 03:25:55;;;;;;;5.70;4.33;;;;;;;9.36;82.73;101353.16;5047607;28;20217;-75
2023/05/28 03:28:21;;;;;;;9.27;4.50;;;;;;;9.37;82.78;101350.44;5044951;28;20205;-74
2023/05/28 03:30:48;;;;;;;8.27;4.43;;;;;;;9.38;83.42;101343.31;5042987;28;20206;-75
2023/05/28 03:33:14;;;;;;;6.77;4.00;;;;;;;9.39;83.96;101345.03;5046322;28;20210;-74
2023/05/28 03:35:40;;;;;;;5.63;4.07;;;;;;;9.40;83.43;101342.31;5045661;28;20228;-75
2023/05/28 03:38:07;;;;;;;6.67;3.90;;;;;;;9.39;83.61;101353.03;5048302;28;20221;-73
2023/05/28 03:40:33;;;;;;;8.73;3.90;;;;;;;9.33;82.28;101353.31;5048389;28;20202;-76
2023/05/28 03:43:01;;;;;;;4.93;3.50;;;;;;;9.25;82.02;101352.81;5047159;28;20209;-76
2023/05/28 03:45:28;;;;;;;6.40;4.03;;;;;;;9.16;82.88;101339.94;5048031;28;20221;-75
2023/05/28 03:47:54;;;;;;;8.17;4.63;;;;;;;9.11;83.63;101349.94;5047689;28;20204;-75
2023/05/28 03:50:21;;;;;;;8.80;4.40;;;;;;;9.07;84.08;101353.66;5046558;28;20206;-74
2023/05/28 03:52:47;;;;;;;6.20;3.53;;;;;;;9.08;85.08;101347.41;5048101;28;20202;-75
2023/05/28 03:55:15;;;;;;;6.07;4.07;;;;;;;9.08;85.30;101352.72;5044604;28;20742;-75
2023/05/28 03:57:41;;;;;;;6.73;3.83;;;;;;;9.07;84.90;101343.91;5047794;28;20279;-75
2023/05/28 04:00:11;;;;;;;5.53;4.43;;;;;;;9.03;85.77;101335.19;5045079;28;20202;-75
2023/05/28 04:02:37;;;;;;;10.70;4.57;;;;;;;9.03;85.90;101344.97;5047782;28;20209;-75
2023/05/28 04:05:05;;;;;;;5.97;4.43;;;;;;;9.03;86.26;101334.34;5048426;28;20221;-77
2023/05/28 04:07:31;;;;;;;6.03;4.00;;;;;;;9.03;86.92;101332.53;5048494;28;20233;-76
2023/05/28 04:09:58;;;;;;;8.57;4.30;;;;;;;9.04;87.40;101330.75;5045513;28;20688;-76
2023/05/28 04:12:25;;;;;;;5.53;3.93;;;;;;;9.06;88.02;101334.19;5045704;28;20296;-75
2023/05/28 04:14:51;;;;;;;9.47;4.63;;;;;;;9.06;87.86;101326.22;5046690;28;20233;-75
2023/05/28 04:17:20;;;;;;;6.83;4.33;;;;;;;9.07;88.23;101327.09;5047686;28;20232;-75
2023/05/28 04:19:47;;;;;;;6.87;4.17;;;;;;;9.07;88.58;101324.44;5046834;28;20292;-74
2023/05/28 04:22:13;;;;;;;7.03;4.13;;;;;;;9.07;88.27;101324.44;5046500;28;20676;-76
2023/05/28 04:24:40;;;;;;;6.73;4.47;;;;;;;9.10;89.50;101324.31;5046790;28;20741;-75
2023/05/28 04:27:07;;;;;;;8.37;4.17;;;;;;;9.13;89.86;101329.47;5046779;28;20819;-75
2023/05/28 04:29:33;;;;;;;8.47;4.77;;;;;;;9.17;89.95;101337.22;5046203;28;20221;-75
2023/05/28 04:32:00;;;;;;;6.83;4.03;;;;;;;9.21;90.48;101332.63;5045225;28;20206;-75
2023/05/28 04:34:28;;;;;;;7.37;4.70;;;;;;;9.26;90.19;101336.81;5047532;28;20583;-75
2023/05/28 04:36:56;;;;;;;6.87;4.70;;;;;;;9.30;91.03;101338.38;5046274;28;20263;-76
2023/05/28 04:39:23;;;;;;;8.77;4.57;;;;;;;9.34;91.22;101345.25;5048607;28;20202;-75
2023/05/28 04:41:50;;;;;;;6.67;4.37;;;;;;;9.39;91.57;101345.91;5046579;28;20210;-75
2023/05/28 04:44:16;;;;;;;9.63;5.53;;;;;;;9.44;92.11;101351.03;5047223;28;20720;-75
2023/05/28 04:46:43;;;;;;;8.33;4.57;;;;;;;9.49;91.74;101346.34;5045177;28;20570;-75
2023/05/28 04:49:10;;;;;;;7.67;4.53;;;;;;;9.54;92.79;101346.97;5045683;28;20209;-75
2023/05/28 04:51:38;;;;;;;6.57;4.70;;;;;;;9.61;92.77;101347.56;5046447;28;20669;-75
2023/05/28 04:54:05;;;;;;;7.97;4.57;;;;;;;9.64;93.13;101348.28;5045962;28;20201;-76
2023/05/28 04:56:31;;;;;;;9.13;5.13;;;;;;;9.68;92.82;101341.84;5046282;28;20593;-73
2023/05/28 04:58:57;;;;;;;8.03;4.17;;;;;;;9.73;93.83;101345.16;5038992;28;20213;-75
2023/05/28 05:01:24;;;;;;;6.80;4.77;;;;;;;9.80;93.35;101342.19;5044822;28;20221;-77
2023/05/28 05:03:51;;;;;;;7.33;4.20;;;;;;;9.83;93.93;101342.06;5040655;28;20226;-75
2023/05/28 05:06:17;;;;;;;6.80;4.67;;;;;;;9.88;93.34;101340.00;5040555;28;20308;-75
2023/05/28 05:08:45;;;;;;;8.03;5.17;;;;;;;9.94;93.96;101345.03;5047076;28;20228;-75
2023/05/28 05:11:12;;;;;;;9.17;4.67;;;;;;;9.99;93.42;101351.00;5045152;28;20232;-75
2023/05/28 05:13:38;;;;;;;10.07;5.07;;;;;;;10.03;94.21;101342.75;5046417;28;20575;-74
2023/05/28 05:16:05;;;;;;;7.25;4.30;;;;;;;10.11;94.37;101347.72;5053936;28;20232;-74
2023/05/28 05:18:31;;;;;;;7.03;5.30;;;;;;;10.20;94.79;101351.75;5042767;28;20233;-75
2023/05/28 05:20:58;;;;;;;8.30;4.93;;;;;;;10.29;94.87;101344.16;5039667;28;20209;-75
2023/05/28 05:23:25;;;;;;;8.60;5.40;;;;;;;10.39;95.00;101342.72;5043801;28;21709;-74
2023/05/28 05:25:53;;;;;;;10.83;4.73;;;;;;;10.50;95.25;101334.19;5047058;28;20726;-75
2023/05/28 05:28:19;;;;;;;7.50;4.47;;;;;;;10.59;95.40;101333.69;5046194;28;20240;-75
2023/05/28 05:30:46;;;;;;;9.53;4.63;;;;;;;10.71;95.71;101338.41;5046563;28;20638;-77
2023/05/28 05:33:12;;;;;;;9.83;4.97;;;;;;;10.84;95.83;101340.41;5043561;28;20206;-75
2023/05/28 05:35:38;;;;;;;7.23;4.70;;;;;;;10.96;96.28;101340.59;5046516;28;20320;-75
2023/05/28 05:38:05;;;;;;;11.43;5.60;;;;;;;11.10;96.03;101339.88;5046306;28;20246;-75
2023/05/28 05:40:32;;;;;;;10.80;4.90;;;;;;;11.25;95.93;101341.69;5046779;28;20207;-73
2023/05/28 05:42:59;;;;;;;9.03;4.77;;;;;;;11.39;95.72;101338.25;5050016;28;20197;-74
2023/05/28 05:45:26;;;;;;;11.67;4.63;;;;;;;11.55;95.57;101346.25;5049921;28;20585;-75
2023/05/28 05:47:52;;;;;;;5.67;4.50;;;;;;;11.69;95.36;101349.88;5050670;28;20566;-76
2023/05/28 05:50:19;;;;;;;8.23;4.80;;;;;;;11.87;95.11;101352.47;5046519;28;20213;-75
2023/05/28 05:52:45;;;;;;;7.37;5.03;;;;;;;12.03;94.12;101353.28;5049840;28;20218;-75
2023/05/28 05:55:12;;;;;;;8.23;5.30;;;;;;;12.18;93.36;101358.59;5048191;28;20224;-73
2023/05/28 05:57:38;;;;;;;7.20;4.83;;;;;;;12.33;92.27;101356.84;5050203;28;20247;-75
2023/05/28 06:00:10;;;;;;;8.37;4.97;;;;;;;12.51;92.22;101352.22;5048889;28;20206;-75
2023/05/28 06:02:37;;;;;;;7.90;5.10;;;;;;;12.67;91.40;101352.16;5048087;28;20215;-76
2023/05/28 06:05:04;;;;;;;8.27;4.70;;;;;;;12.82;90.33;101352.06;5046937;28;20228;-76
2023/05/28 06:07:30;;;;;;;7.27;4.37;;;;;;;12.98;89.32;101349.31;5042824;28;20234;-75
2023/05/28 06:09:57;;;;;;;6.80;4.67;;;;;;;13.15;88.17;101351.81;5055614;28;20198;-75
2023/05/28 06:12:23;;;;;;;6.30;4.27;;;;;;;13.31;87.43;101353.50;5047490;28;20205;-75
2023/05/28 06:14:50;;;;;;;7.33;4.53;;;;;;;13.45;85.88;101349.00;5050546;28;20757;-76
2023/05/28 06:17:17;;;;;;;7.43;4.60;;;;;;;13.59;84.03;101357.97;5050732;28;20229;-76
2023/05/28 06:19:44;;;;;;;7.30;4.50;;;;;;;13.71;82.79;101355.34;5048542;28;20784;-75
2023/05/28 06:22:10;;;;;;;9.27;4.03;;;;;;;13.86;81.54;101357.00;5049117;28;20205;-76
2023/05/28 06:24:38;;;;;;;10.10;4.30;;;;;;;14.02;80.96;101361.34;5049920;28;20750;-75
2023/05/28 06:27:05;;;;;;;8.07;4.40;;;;;;;14.17;79.27;101361.19;5048031;28;20204;-74
2023/05/28 06:29:31;;;;;;;6.10;4.33;;;;;;;14.32;78.13;101361.13;5051224;28;20574;-76
2023/05/28 06:31:58;;;;;;;6.60;4.37;;;;;;;14.46;76.35;101353.91;5049400;28;20279;-75
2023/05/28 06:34:26;;;;;;;6.00;4.30;;;;;;;14.61;76.15;101351.13;5047967;28;20205;-73
2023/05/28 06:36:52;;;;;;;5.93;4.23;;;;;;;14.71;74.02;101354.88;5048052;28;21578;-75
2023/05/28 06:39:19;;;;;;;8.47;4.17;;;;;;;14.85;74.15;101352.13;5050081;28;20656;-76
2023/05/28 06:41:46;;;;;;;6.07;4.00;;;;;;;15.00;73.34;101353.72;5047358;28;20296;-75
2023/05/28 06:44:12;;;;;;;7.97;4.27;;;;;;;15.16;72.53;101348.97;5047378;28;20205;-76
2023/05/28 06:46:38;;;;;;;9.20;4.77;;;;;;;15.35;70.74;101348.50;5046172;28;20257;-75
2023/05/28 06:49:05;;;;;;;9.67;4.30;;;;;;;15.52;69.88;101342.78;5049286;28;20215;-74
2023/05/28 06:51:33;;;;;;;6.27;4.27;;;;;;;15.69;68.53;101349.63;5047260;28;20686;-73
2023/05/28 06:53:59;;;;;;;8.10;4.07;;;;;;;15.85;67.87;101350.22;5048974;28;20834;-75
2023/05/28 06:56:26;;;;;;;6.63;3.60;;;;;;;16.05;67.18;101354.09;5045826;28;20228;-74
2023/05/28 06:58:53;;;;;;;6.40;4.03;;;;;;;16.22;66.93;101350.13;5048576;28;20231;-76
2023/05/28 07:01:19;;;;;;;5.97;3.93;;;;;;;16.44;66.68;101349.34;5044979;28;20288;-75
2023/05/28 07:03:46;;;;;;;10.97;3.87;;;;;;;16.64;66.31;101351.41;5048721;28;20430;-74
2023/05/28 07:06:12;;;;;;;6.90;4.00;;;;;;;16.84;65.82;101350.69;5045423;28;20247;-76
2023/05/28 07:08:44;;;;;;;8.30;4.23;;;;;;;17.02;64.86;101348.38;5042781;28;20206;-76
2023/05/28 07:11:10;;;;;;;8.17;4.07;;;;;;;17.18;64.58;101346.19;5047360;28;20209;-72
2023/05/28 07:13:38;;;;;;;8.10;3.97;;;;;;;17.36;64.19;101343.88;5047603;28;20723;-74
2023/05/28 07:16:04;;;;;;;5.67;3.50;;;;;;;17.55;63.85;101348.63;5054242;28;20233;-74
2023/05/28 07:18:31;;;;;;;8.90;4.33;;;;;;;17.72;62.43;101350.81;5039074;28;20909;-72
2023/05/28 07:20:57;;;;;;;5.73;4.07;;;;;;;17.88;62.22;101348.56;5048003;28;20213;-75
2023/05/28 07:23:24;;;;;;;6.43;3.73;;;;;;;18.03;61.17;101349.97;5052915;28;20206;-76
2023/05/28 07:25:51;;;;;;;6.23;3.43;;;;;;;18.21;59.67;101352.97;5043381;28;20238;-75
2023/05/28 07:28:18;;;;;;;6.90;3.87;;;;;;;18.35;58.66;101360.75;5044279;28;20585;-76
2023/05/28 07:30:44;;;;;;;6.27;3.27;;;;;;;18.52;57.83;101350.34;5048054;28;20213;-76
2023/05/28 07:33:11;;;;;;;6.33;3.60;;;;;;;18.67;56.82;101343.66;5047837;28;20212;-76
2023/05/28 07:35:37;;;;;;;7.00;3.90;;;;;;;18.84;56.00;101350.31;5049547;28;20226;-73
2023/05/28 07:38:04;;;;;;;6.77;3.63;;;;;;;19.03;56.09;101345.88;5053304;28;20223;-74
2023/05/28 07:40:30;;;;;;;5.93;3.57;;;;;;;19.21;55.11;101348.78;5047877;28;20211;-76
2023/05/28 07:42:58;;;;;;;7.00;3.50;;;;;;;19.35;53.90;101345.72;5047834;28;20208;-75
2023/05/28 07:45:25;;;;;;;5.53;3.30;;;;;;;19.52;53.39;101346.09;5039592;28;20239;-75
2023/05/28 07:47:51;;;;;;;7.03;3.60;;;;;;;19.67;52.33;101350.13;5048142;28;20213;-75
2023/05/28 07:50:18;;;;;;;6.40;3.70;;;;;;;19.75;51.71;101344.88;5039274;28;20212;-74
2023/05/28 07:52:45;;;;;;;6.40;4.10;;;;;;;19.89;51.83;101349.84;5046584;28;20594;-76
2023/05/28 07:55:12;;;;;;;5.07;3.50;;;;;;;20.01;51.39;101343.34;5047872;28;20226;-76
2023/05/28 07:57:38;;;;;;;6.63;3.27;;;;;;;20.13;51.05;101337.78;5050266;28;20226;-75
2023/05/28 08:00:12;;;;;;;5.30;3.60;;;;;;;20.25;51.19;101331.22;5045934;28;20666;-75
2023/05/28 08:02:38;;;;;;;5.70;3.33;;;;;;;20.40;50.21;101332.56;5047733;28;21239;-75
2023/05/28 08:05:05;;;;;;;6.37;3.40;;;;;;;20.52;49.61;101342.22;5046803;28;20633;-75
2023/05/28 08:07:33;;;;;;;5.27;3.27;;;;;;;20.65;49.22;101331.06;5047341;28;20451;-75
2023/05/28 08:09:59;;;;;;;5.53;3.57;;;;;;;20.79;48.55;101336.03;5046822;28;20337;-75
2023/05/28 08:12:26;;;;;;;7.27;3.50;;;;;;;20.93;47.74;101334.72;5047641;28;20216;-73
2023/05/28 08:14:53;;;;;;;5.90;3.30;;;;;;;21.00;46.90;101325.00;5049283;28;20225;-75
2023/05/28 08:17:22;;;;;;;4.40;3.03;;;;;;;21.09;46.72;101322.25;5045503;28;20208;-72
2023/05/28 08:19:48;;;;;;;6.32;3.55;;;;;;;21.20;46.08;101323.94;5047721;28;20208;-73
2023/05/28 08:22:15;;;;;;;5.95;3.30;;;;;;;21.32;45.29;101321.88;5047065;28;20212;-76
2023/05/28 08:24:42;;;;;;;6.45;3.42;;;;;;;21.43;44.33;101317.13;5046250;28;20303;-74
2023/05/28 08:27:08;;;;;;;5.93;3.95;;;;;;;21.51;43.62;101320.94;5045917;28;20209;-76
2023/05/28 08:29:35;;;;;;;4.60;3.78;;;;;;;21.62;43.46;101318.88;5052709;28;20221;-75
2023/05/28 08:32:01;;;;;;;7.25;3.83;;;;;;;21.78;44.39;101312.78;5048537;28;20277;-74
2023/05/28 08:34:29;;;;;;;7.50;4.22;;;;;;;21.90;43.98;101313.38;5046411;28;20206;-74
2023/05/28 08:36:55;;;;;;;6.97;3.97;;;;;;;22.00;43.51;101314.22;5047282;28;20260;-75
2023/05/28 08:39:24;;;;;;;5.82;3.88;;;;;;;22.08;42.99;101315.13;5047771;28;20231;-75
2023/05/28 08:41:50;;;;;;;5.82;3.22;;;;;;;22.16;42.64;101312.50;5046208;28;20205;-75
2023/05/28 08:44:16;;;;;;;4.82;3.20;;;;;;;22.28;41.96;101314.97;5034169;28;20213;-72
2023/05/28 08:46:43;;;;;;;5.60;3.00;;;;;;;22.35;41.29;101316.06;5055100;28;20205;-73
2023/05/28 08:49:12;;;;;;;6.47;3.30;;;;;;;22.44;40.98;101305.09;5045794;28;20216;-75
2023/05/28 08:51:42;;;;;;;5.15;3.28;;;;;;;22.55;41.44;101309.44;5049671;28;20563;-75
2023/05/28 08:54:08;;;;;;;5.72;3.35;;;;;;;22.71;41.83;101314.13;5046247;28;20207;-76
2023/05/28 08:56:35;;;;;;;5.63;2.83;;;;;;;22.89;41.38;101311.38;5046615;28;20233;-75
2023/05/28 08:59:03;;;;;;;7.82;3.17;;;;;;;23.03;40.85;101303.47;5045889;28;20234;-76
2023/05/28 09:01:30;;;;;;;4.13;2.38;;;;;;;23.14;39.57;101297.75;5045678;28;20232;-73
2023/05/28 09:03:56;;;;;;;5.80;3.17;;;;;;;23.20;38.41;101301.69;5046579;28;20209;-75
2023/05/28 09:06:24;;;;;;;6.25;2.78;;;;;;;23.30;38.75;101302.38;5045209;28;20220;-72
2023/05/28 09:08:54;;;;;;;3.85;2.55;;;;;;;23.40;38.39;101305.84;5044791;28;20229;-75
2023/05/28 09:11:20;;;;;;;6.50;3.45;;;;;;;23.45;37.91;101303.50;5046011;28;20288;-72
2023/05/28 09:13:49;;;;;;;3.75;2.40;;;;;;;23.52;38.38;101293.66;5046156;28;20197;-75
2023/05/28 09:16:22;;;;;;;5.13;2.38;;;;;;;23.66;38.53;101294.88;5043430;28;20582;-74
2023/05/28 09:18:51;;;;;;;4.18;2.60;;;;;;;23.75;38.07;101299.34;5049669;28;20633;-74
2023/05/28 09:21:19;;;;;;;4.25;2.63;;;;;;;23.79;36.94;101288.97;5051430;28;20641;-74
2023/05/28 09:23:46;;;;;;;6.40;3.13;;;;;;;23.86;36.52;101288.13;5049157;28;20228;-74
2023/05/28 09:26:15;;;;;;;4.25;2.72;;;;;;;23.94;36.31;101287.31;5046165;28;20225;-75
2023/05/28 09:28:42;;;;;;;4.47;2.58;;;;;;;23.94;35.37;101292.75;5048802;28;20196;-73
2023/05/28 09:31:09;;;;;;;3.65;2.53;;;;;;;23.99;34.93;101287.66;5049758;28;20201;-76
2023/05/28 09:33:41;;;;;;;4.90;2.92;;;;;;;24.06;35.03;101291.38;5052939;28;20707;-74
2023/05/28 09:36:08;;;;;;;3.65;2.25;;;;;;;24.11;34.28;101297.19;5048939;28;20282;-75
2023/05/28 09:38:39;;;;;;;4.18;2.53;;;;;;;24.09;33.29;101288.31;5048916;28;20228;-75
2023/05/28 09:41:06;;;;;;;4.53;2.47;;;;;;;24.05;33.77;101288.81;5050690;28;20661;-73
2023/05/28 09:43:34;;;;;;;4.97;2.67;;;;;;;24.02;34.85;101283.72;5048432;28;20693;-73
2023/05/28 09:46:08;;;;;;;5.82;2.72;;;;;;;24.06;34.90;101288.66;5050930;28;20270;-75
2023/05/28 09:48:34;;;;;;;4.80;2.58;;;;;;;24.09;34.81;101285.59;5050250;28;20240;-74
2023/05/28 09:51:04;;;;;;;5.50;2.50;;;;;;;24.11;34.81;101283.56;5047495;28;20201;-75
2023/05/28 09:53:33;;;;;;;4.45;2.20;;;;;;;24.21;35.00;101283.38;5045068;28;20592;-75
2023/05/28 09:56:00;;;;;;;4.10;2.30;;;;;;;24.29;34.00;101280.72;5044830;28;20963;-75
2023/05/28 09:58:34;;;;;;;4.65;3.17;;;;;;;24.26;33.50;101275.59;5042106;28;21167;-74
2023/05/28 10:01:08;;;;;;;4.47;2.00;;;;;;;24.27;33.14;101277.31;5048420;28;20213;-72
2023/05/28 10:03:37;;;;;;;3.80;2.10;;;;;;;24.32;32.92;101272.22;5046406;28;20404;-75
2023/05/28 10:06:07;;;;;;;3.13;1.88;;;;;;;24.35;32.43;101268.28;5046097;28;20612;-73
2023/05/28 10:08:37;;;;;;;3.10;2.20;;;;;;;24.40;32.31;101266.72;5039282;28;20324;-76
2023/05/28 10:11:09;;;;;;;6.50;4.50;;;;;;;24.43;32.20;101274.56;5043235;28;20213;-73
2023/05/28 10:13:36;;;;;;;3.72;2.38;;;;;;;24.47;32.17;101270.47;5043650;28;20507;-74
2023/05/28 10:16:04;;;;;;;4.13;2.35;;;;;;;24.51;31.99;101262.81;5042596;28;20229;-73
2023/05/28 10:18:31;;;;;;;3.95;2.17;;;;;;;24.52;31.91;101264.53;5046314;28;20240;-73
2023/05/28 10:20:59;;;;;;;4.22;2.63;;;;;;;24.54;32.20;101257.03;5050707;28;20220;-74
2023/05/28 10:23:26;;;;;;;3.22;1.90;;;;;;;24.59;32.38;101260.06;5049462;28;20209;-73
2023/05/28 10:25:54;;;;;;;4.72;2.13;;;;;;;24.72;32.48;101260.38;5045657;28;20730;-74
2023/05/28 10:28:21;;;;;;;3.65;2.17;;;;;;;24.81;32.41;101269.38;5045617;28;20208;-73
2023/05/28 10:31:01;;;;;;;6.57;2.50;;;;;;;24.85;31.81;101266.16;5045937;28;20632;-74
2023/05/28 10:33:28;;;;;;;4.88;2.50;;;;;;;24.92;31.78;101253.50;5043068;28;20592;-73
2023/05/28 10:35:56;;;;;;;4.10;2.33;;;;;;;24.98;31.10;101259.31;5043822;28;20398;-73
2023/05/28 10:38:24;;;;;;;2.92;2.22;;;;;;;25.01;31.12;101256.25;5052945;28;20231;-74
2023/05/28 10:40:51;;;;;;;4.50;2.45;;;;;;;25.10;31.57;101258.75;5049451;28;20205;-74
2023/05/28 10:43:44;;;;;;;3.47;2.00;;;;;;;25.15;31.19;101261.78;5041262;28;20228;-73
2023/05/28 10:46:10;;;;;;;3.85;2.00;;;;;;;25.12;30.55;101258.56;5048854;28;20225;-73
2023/05/28 10:48:40;;;;;;;3.85;1.83;;;;;;;25.12;30.59;101253.97;5049601;28;20201;-73
2023/05/28 10:51:07;;;;;;;3.55;2.05;;;;;;;25.14;30.08;101251.91;5046203;28;20229;-71
2023/05/28 10:53:33;;;;;;;5.25;2.13;;;;;;;25.18;29.90;101256.00;5041012;28;20214;-74
2023/05/28 10:56:02;;;;;;;3.50;2.08;;;;;;;25.21;30.09;101261.09;5045808;28;20225;-73
2023/05/28 10:58:33;;;;;;;2.72;1.63;;;;;;;25.22;29.52;101257.34;5041295;28;20320;-73
2023/05/28 11:01:19;;;;;;;3.45;2.00;;;;;;;25.29;29.81;101257.47;5038701;28;20202;-72
2023/05/28 11:03:53;;;;;;;3.00;2.05;;;;;;;25.45;30.21;101254.66;5043456;28;20769;-73
2023/05/28 11:06:20;;;;;;;3.65;2.10;;;;;;;25.62;30.58;101265.47;5049408;28;20225;-74
2023/05/28 11:08:48;;;;;;;3.35;2.00;;;;;;;25.64;29.93;101255.25;5047102;28;20201;-73
2023/05/28 11:11:17;;;;;;;4.60;2.28;;;;;;;25.57;30.40;101261.41;5046605;28;20202;-73
2023/05/28 11:13:44;;;;;;;3.17;1.92;;;;;;;25.56;30.02;101262.44;5047012;28;20197;-74
2023/05/28 11:16:11;;;;;;;5.00;2.05;;;;;;;25.50;30.10;101268.59;5048413;28;20236;-73
2023/05/28 11:18:38;;;;;;;4.00;2.45;;;;;;;25.54;30.56;101250.00;5046782;28;20232;-73
2023/05/28 11:21:08;;;;;;;4.68;2.25;;;;;;;25.57;30.58;101266.88;5045996;28;20595;-73
2023/05/28 11:23:36;;;;;;;2.75;2.30;;;;;;;25.57;30.62;101260.56;5045072;28;20214;-73
2023/05/28 11:26:02;;;;;;;3.72;2.20;;;;;;;25.63;30.87;101259.84;5044898;28;20221;-73
2023/05/28 11:28:29;;;;;;;2.97;2.10;;;;;;;25.69;30.31;101252.84;5042252;28;20197;-73